createdAt,value
2023-03-26T00:01:25.035Z,2.22
2023-03-26T00:06:24.502Z,3.97
2023-03-26T00:08:52.596Z,1.50
2023-03-26T00:11:21.590Z,1.67
2023-03-26T00:13:48.578Z,0.88
2023-03-26T00:16:17.924Z,3.85
2023-03-26T00:18:44.635Z,2.25
2023-03-26T00:21:14.881Z,2.28
2023-03-26T00:23:42.356Z,2.10
2023-03-26T00:26:10.762Z,3.33
2023-03-26T00:28:42.230Z,4.65
2023-03-26T00:31:14.803Z,3.03
2023-03-26T00:33:41.930Z,1.55
2023-03-26T00:36:11.958Z,1.83
2023-03-26T00:38:39.274Z,0.73
2023-03-26T00:41:17.553Z,1.98
2023-03-26T00:43:46.654Z,1.63
2023-03-26T00:46:13.263Z,3.97
2023-03-26T00:48:45.510Z,5.72
2023-03-26T00:51:17.469Z,4.38
2023-03-26T00:53:46.263Z,3.15
2023-03-26T00:56:13.247Z,2.45
2023-03-26T00:58:40.258Z,2.97
2023-03-26T01:01:10.551Z,1.63
2023-03-26T01:03:38.644Z,0.52
2023-03-26T01:06:12.779Z,1.10
2023-03-26T01:08:50.415Z,0.82
2023-03-26T01:11:16.882Z,0.68
2023-03-26T01:13:47.762Z,2.13
2023-03-26T01:16:23.323Z,1.45
2023-03-26T01:18:52.682Z,0.55
2023-03-26T01:21:22.628Z,3.08
2023-03-26T01:23:59.931Z,1.65
2023-03-26T01:26:44.129Z,2.35
2023-03-26T01:29:39.463Z,1.10
2023-03-26T01:32:37.714Z,2.22
2023-03-26T01:35:36.205Z,0.70
2023-03-26T01:38:24.528Z,2.17
2023-03-26T01:41:04.822Z,3.08
2023-03-26T01:43:44.097Z,4.25
2023-03-26T01:46:13.142Z,2.25
2023-03-26T01:51:09.806Z,3.95
2023-03-26T01:53:43.866Z,2.85
2023-03-26T01:56:29.466Z,1.90
2023-03-26T01:58:58.869Z,3.28
2023-03-26T02:01:49.367Z,2.97
2023-03-26T02:04:54.523Z,4.20
2023-03-26T02:07:38.018Z,3.78
2023-03-26T02:10:27.781Z,3.45
2023-03-26T02:12:54.773Z,5.43
2023-03-26T02:15:21.566Z,4.63
2023-03-26T02:17:49.514Z,7.30
2023-03-26T02:21:06.273Z,4.20
2023-03-26T02:23:35.870Z,5.40
2023-03-26T02:26:06.472Z,6.35
2023-03-26T02:28:33.152Z,3.88
2023-03-26T02:31:01.826Z,3.97
2023-03-26T02:33:29.054Z,4.25
2023-03-26T02:35:59.381Z,4.00
2023-03-26T02:38:26.720Z,4.05
2023-03-26T02:40:54.479Z,1.88
2023-03-26T02:43:21.344Z,2.53
2023-03-26T02:45:47.944Z,1.63
2023-03-26T02:48:15.197Z,2.47
2023-03-26T02:50:42.490Z,3.92
2023-03-26T02:53:09.427Z,1.63
2023-03-26T02:55:35.975Z,1.35
2023-03-26T02:58:02.461Z,1.35
2023-03-26T03:00:29.057Z,1.48
2023-03-26T03:02:58.019Z,2.42
2023-03-26T03:07:58.082Z,1.38
2023-03-26T03:10:26.301Z,2.38
2023-03-26T03:12:53.281Z,2.22
2023-03-26T03:15:20.470Z,2.40
2023-03-26T03:17:47.493Z,1.67
2023-03-26T03:20:14.094Z,3.10
2023-03-26T03:22:41.232Z,2.72
2023-03-26T03:25:17.478Z,2.15
2023-03-26T03:27:44.577Z,1.88
2023-03-26T03:30:13.290Z,2.10
2023-03-26T03:32:39.817Z,2.30
2023-03-26T03:35:07.404Z,2.40
2023-03-26T03:37:33.908Z,1.90
2023-03-26T03:40:00.365Z,1.55
2023-03-26T03:42:27.638Z,1.08
2023-03-26T03:44:54.271Z,4.13
2023-03-26T03:47:22.834Z,2.70
2023-03-26T03:49:50.009Z,3.42
2023-03-26T03:52:17.968Z,5.50
2023-03-26T03:54:44.523Z,5.10
2023-03-26T03:57:11.088Z,4.38
2023-03-26T03:59:37.561Z,6.38
2023-03-26T04:02:03.993Z,6.70
2023-03-26T04:04:30.654Z,9.18
2023-03-26T04:06:57.168Z,6.95
2023-03-26T04:09:23.638Z,9.60
2023-03-26T04:11:51.084Z,5.03
2023-03-26T04:14:17.559Z,4.65
2023-03-26T04:16:44.034Z,7.40
2023-03-26T04:19:10.477Z,3.28
2023-03-26T04:21:37.803Z,1.42
2023-03-26T04:24:05.286Z,1.63
2023-03-26T04:26:31.944Z,0.73
2023-03-26T04:29:05.639Z,0.73
2023-03-26T04:31:34.050Z,3.08
2023-03-26T04:34:07.607Z,1.25
2023-03-26T04:36:35.461Z,2.30
2023-03-26T04:39:05.001Z,2.42
2023-03-26T04:41:32.443Z,3.03
2023-03-26T04:44:01.797Z,2.08
2023-03-26T04:46:28.656Z,5.10
2023-03-26T04:48:55.573Z,3.35
2023-03-26T04:51:27.055Z,5.97
2023-03-26T04:54:07.176Z,4.82
2023-03-26T04:56:43.473Z,4.43
2023-03-26T04:59:30.427Z,5.28
2023-03-26T05:01:59.134Z,3.15
2023-03-26T05:04:26.664Z,3.40
2023-03-26T05:06:53.962Z,4.68
2023-03-26T05:09:20.623Z,2.03
2023-03-26T05:11:48.181Z,2.78
2023-03-26T05:14:14.654Z,3.40
2023-03-26T05:16:41.388Z,3.08
2023-03-26T05:19:08.947Z,3.80
2023-03-26T05:21:35.787Z,2.65
2023-03-26T05:24:02.598Z,1.10
2023-03-26T05:26:29.563Z,2.65
2023-03-26T05:28:56.846Z,2.42
2023-03-26T05:31:23.479Z,1.20
2023-03-26T05:33:50.210Z,2.67
2023-03-26T05:36:17.283Z,2.38
2023-03-26T05:38:47.751Z,2.83
2023-03-26T05:41:14.291Z,2.70
2023-03-26T05:43:41.391Z,1.77
2023-03-26T05:46:08.128Z,2.85
2023-03-26T05:48:34.950Z,2.55
2023-03-26T05:51:01.616Z,5.35
2023-03-26T05:53:28.232Z,6.18
2023-03-26T05:55:58.413Z,9.00
2023-03-26T05:58:26.717Z,7.53
2023-03-26T06:01:18.105Z,6.95
2023-03-26T06:04:12.580Z,4.13
2023-03-26T06:06:39.367Z,2.85
2023-03-26T06:09:06.615Z,2.58
2023-03-26T06:11:33.120Z,1.90
2023-03-26T06:14:00.603Z,1.10
2023-03-26T06:16:27.945Z,1.10
2023-03-26T06:18:56.703Z,4.40
2023-03-26T06:21:27.620Z,2.42
2023-03-26T06:23:54.518Z,1.90
2023-03-26T06:26:21.444Z,1.40
2023-03-26T06:28:48.221Z,1.50
2023-03-26T06:31:14.811Z,0.80
2023-03-26T06:33:41.326Z,2.03
2023-03-26T06:36:08.250Z,2.53
2023-03-26T06:38:34.887Z,1.60
2023-03-26T06:41:06.173Z,3.47
2023-03-26T06:43:33.855Z,1.83
2023-03-26T06:46:03.999Z,1.15
2023-03-26T06:48:30.862Z,1.38
2023-03-26T06:50:57.740Z,2.22
2023-03-26T06:53:24.214Z,6.60
2023-03-26T06:55:50.909Z,23.50
2023-03-26T06:58:17.367Z,1.77
2023-03-26T07:00:44.026Z,2.15
2023-03-26T07:03:11.405Z,4.40
2023-03-26T07:05:40.550Z,7.18
2023-03-26T07:10:33.602Z,5.05
2023-03-26T07:13:00.024Z,4.57
2023-03-26T07:15:28.845Z,4.78
2023-03-26T07:17:56.353Z,2.38
2023-03-26T07:20:23.811Z,6.15
2023-03-26T07:23:20.556Z,4.35
2023-03-26T07:25:48.672Z,6.63
2023-03-26T07:28:25.799Z,7.45
2023-03-26T07:31:04.549Z,6.80
2023-03-26T07:33:38.811Z,2.63
2023-03-26T07:36:26.500Z,5.05
2023-03-26T07:39:30.790Z,4.45
2023-03-26T07:42:09.822Z,4.63
2023-03-26T07:45:03.106Z,6.32
2023-03-26T07:47:33.924Z,5.57
2023-03-26T07:50:00.918Z,5.72
2023-03-26T07:52:28.244Z,4.70
2023-03-26T07:54:55.759Z,5.72
2023-03-26T07:57:47.483Z,4.30
2023-03-26T08:00:22.148Z,4.75
2023-03-26T08:03:10.482Z,6.40
2023-03-26T08:05:47.048Z,3.83
2023-03-26T08:08:25.701Z,2.90
2023-03-26T08:11:14.586Z,7.57
2023-03-26T08:14:01.092Z,5.68
2023-03-26T08:16:36.454Z,10.90
2023-03-26T08:19:21.087Z,6.57
2023-03-26T08:22:06.904Z,5.47
2023-03-26T08:24:43.629Z,3.90
2023-03-26T08:27:21.452Z,5.22
2023-03-26T08:30:03.497Z,5.15
2023-03-26T08:34:20.991Z,5.47
2023-03-26T08:36:47.645Z,6.70
2023-03-26T08:39:14.212Z,6.15
2023-03-26T08:41:46.839Z,6.20
2023-03-26T08:44:32.075Z,7.30
2023-03-26T08:47:29.034Z,10.18
2023-03-26T08:50:07.909Z,6.75
2023-03-26T08:52:34.353Z,6.10
2023-03-26T08:55:19.440Z,4.90
2023-03-26T08:58:14.132Z,6.85
2023-03-26T09:00:41.130Z,8.23
2023-03-26T09:03:35.542Z,7.47
2023-03-26T09:06:31.764Z,3.83
2023-03-26T09:09:19.588Z,6.78
2023-03-26T09:12:14.189Z,4.88
2023-03-26T09:15:23.782Z,7.55
2023-03-26T09:17:54.438Z,6.28
2023-03-26T09:20:34.052Z,7.32
2023-03-26T09:23:16.048Z,5.10
2023-03-26T09:25:56.550Z,6.32
2023-03-26T09:28:23.236Z,10.15
2023-03-26T09:31:15.775Z,8.02
2023-03-26T09:34:00.289Z,5.10
2023-03-26T09:36:45.370Z,5.30
2023-03-26T09:39:52.191Z,7.18
2023-03-26T09:42:52.348Z,5.57
2023-03-26T09:45:22.578Z,5.22
2023-03-26T09:48:05.635Z,4.82
2023-03-26T09:50:59.821Z,4.50
2023-03-26T09:54:11.301Z,4.50
2023-03-26T09:57:15.096Z,5.03
2023-03-26T10:00:16.896Z,4.82
2023-03-26T10:03:02.212Z,3.53
2023-03-26T10:05:48.054Z,5.32
2023-03-26T10:08:31.719Z,8.48
2023-03-26T10:11:13.712Z,5.78
2023-03-26T10:13:54.044Z,7.05
2023-03-26T10:16:51.887Z,4.38
2023-03-26T10:19:37.815Z,6.03
2023-03-26T10:22:14.502Z,7.32
2023-03-26T10:25:05.096Z,7.25
2023-03-26T10:27:51.557Z,3.47
2023-03-26T10:30:31.622Z,3.60
2023-03-26T10:33:09.384Z,5.85
2023-03-26T10:35:52.770Z,6.13
2023-03-26T10:38:47.261Z,3.80
2023-03-26T10:41:23.493Z,5.43
2023-03-26T10:44:22.780Z,7.20
2023-03-26T10:47:16.769Z,5.30
2023-03-26T10:50:08.210Z,3.58
2023-03-26T10:52:39.696Z,5.90
2023-03-26T10:55:24.294Z,4.47
2023-03-26T10:58:13.360Z,4.70
2023-03-26T11:00:46.582Z,3.83
2023-03-26T11:03:43.725Z,4.75
2023-03-26T11:06:19.606Z,4.95
2023-03-26T11:09:04.691Z,4.25
2023-03-26T11:11:48.916Z,7.10
2023-03-26T11:14:47.803Z,3.58
2023-03-26T11:17:40.477Z,6.15
2023-03-26T11:20:25.306Z,3.45
2023-03-26T11:23:14.592Z,4.68
2023-03-26T11:25:50.908Z,5.10
2023-03-26T11:28:32.641Z,3.67
2023-03-26T11:31:04.767Z,3.47
2023-03-26T11:33:37.206Z,5.93
2023-03-26T11:36:08.825Z,5.63
2023-03-26T11:38:40.134Z,3.80
2023-03-26T11:41:23.070Z,2.08
2023-03-26T11:43:56.377Z,2.85
2023-03-26T11:46:25.352Z,4.88
2023-03-26T11:49:09.259Z,4.78
2023-03-26T11:51:37.017Z,4.57
2023-03-26T11:54:05.325Z,3.72
2023-03-26T11:57:04.558Z,3.85
2023-03-26T11:59:55.888Z,5.85
2023-03-26T12:02:37.825Z,5.00
2023-03-26T12:05:20.339Z,3.70
2023-03-26T12:07:53.593Z,4.07
2023-03-26T12:10:39.245Z,3.55
2023-03-26T12:13:37.237Z,5.55
2023-03-26T12:16:14.306Z,4.55
2023-03-26T12:18:43.804Z,5.03
2023-03-26T12:21:19.338Z,5.03
2023-03-26T12:23:56.844Z,5.93
2023-03-26T12:26:35.256Z,4.75
2023-03-26T12:29:09.663Z,5.68
2023-03-26T12:31:46.806Z,3.88
2023-03-26T12:34:16.825Z,3.58
2023-03-26T12:37:00.003Z,4.35
2023-03-26T12:40:09.079Z,7.32
2023-03-26T12:44:50.336Z,5.78
2023-03-26T12:45:23.895Z,5.47
2023-03-26T12:47:59.727Z,5.20
2023-03-26T12:50:44.930Z,3.50
2023-03-26T12:53:23.975Z,4.38
2023-03-26T12:56:01.232Z,4.95
2023-03-26T12:58:58.652Z,4.18
2023-03-26T13:01:37.306Z,2.78
2023-03-26T13:04:28.774Z,3.05
2023-03-26T13:07:04.395Z,2.35
2023-03-26T13:09:56.618Z,4.05
2023-03-26T13:12:46.187Z,1.85
2023-03-26T13:15:35.611Z,6.30
2023-03-26T13:18:21.577Z,2.67
2023-03-26T13:21:14.714Z,1.67
2023-03-26T13:23:53.515Z,2.60
2023-03-26T13:26:38.812Z,4.22
2023-03-26T13:29:23.815Z,2.25
2023-03-26T13:32:20.315Z,2.92
2023-03-26T13:35:18.120Z,2.13
2023-03-26T13:38:06.960Z,2.38
2023-03-26T13:40:46.561Z,3.58
2023-03-26T13:43:28.181Z,2.05
2023-03-26T13:46:28.736Z,5.15
2023-03-26T13:49:15.535Z,1.58
2023-03-26T13:51:48.454Z,1.98
2023-03-26T13:54:27.584Z,2.38
2023-03-26T13:57:05.483Z,3.67
2023-03-26T13:59:40.229Z,2.75
2023-03-26T14:02:18.154Z,1.33
2023-03-26T14:04:49.503Z,2.97
2023-03-26T14:07:24.759Z,3.22
2023-03-26T14:09:58.757Z,1.83
2023-03-26T14:12:51.440Z,4.40
2023-03-26T14:15:27.090Z,2.25
2023-03-26T14:18:03.521Z,1.98
2023-03-26T14:21:19.439Z,4.38
2023-03-26T14:23:51.924Z,1.23
2023-03-26T14:26:40.388Z,3.13
2023-03-26T14:29:28.095Z,1.75
2023-03-26T14:32:24.801Z,2.67
2023-03-26T14:35:26.003Z,3.17
2023-03-26T14:38:35.354Z,5.82
2023-03-26T14:41:24.992Z,2.00
2023-03-26T14:44:29.573Z,3.20
2023-03-26T14:47:20.535Z,3.42
2023-03-26T14:49:55.363Z,2.30
2023-03-26T14:52:31.550Z,3.65
2023-03-26T14:55:03.617Z,2.88
2023-03-26T14:57:52.467Z,4.55
2023-03-26T15:01:03.811Z,3.33
2023-03-26T15:03:51.202Z,4.82
2023-03-26T15:06:55.344Z,3.78
2023-03-26T15:09:49.004Z,3.47
2023-03-26T15:12:51.508Z,6.30
2023-03-26T15:15:36.309Z,2.75
2023-03-26T15:18:21.629Z,2.47
2023-03-26T15:21:18.967Z,2.92
2023-03-26T15:24:16.298Z,3.45
2023-03-26T15:27:01.648Z,3.13
2023-03-26T15:29:28.073Z,4.78
2023-03-26T15:32:16.255Z,4.57
2023-03-26T15:35:37.641Z,2.58
2023-03-26T15:38:42.453Z,2.03
2023-03-26T15:41:27.801Z,3.83
2023-03-26T15:44:22.830Z,2.83
2023-03-26T15:47:30.651Z,3.28
2023-03-26T15:50:15.631Z,2.42
2023-03-26T15:52:53.912Z,1.75
2023-03-26T15:55:53.692Z,2.10
2023-03-26T16:01:25.449Z,3.42
2023-03-26T16:04:09.267Z,1.42
2023-03-26T16:06:41.586Z,0.65
2023-03-26T16:09:20.204Z,1.63
2023-03-26T16:11:54.813Z,1.77
2023-03-26T16:14:36.322Z,1.27
2023-03-26T16:17:06.493Z,2.13
2023-03-26T16:19:46.067Z,1.27
2023-03-26T16:22:42.826Z,1.17
2023-03-26T16:25:28.670Z,3.13
2023-03-26T16:28:10.681Z,3.33
2023-03-26T16:30:37.632Z,2.55
2023-03-26T16:33:19.377Z,1.27
2023-03-26T16:36:26.058Z,0.57
2023-03-26T16:39:19.781Z,1.10
2023-03-26T16:42:06.079Z,0.90
2023-03-26T16:44:41.127Z,1.08
2023-03-26T16:47:42.929Z,1.02
2023-03-26T16:50:33.051Z,1.48
2023-03-26T16:53:34.673Z,1.05
2023-03-26T16:56:15.660Z,0.88
2023-03-26T16:59:00.381Z,0.75
2023-03-26T17:01:27.373Z,1.48
2023-03-26T17:04:05.131Z,1.55
2023-03-26T17:06:45.692Z,1.75
2023-03-26T17:09:21.238Z,0.50
2023-03-26T17:11:59.864Z,1.20
2023-03-26T17:14:48.928Z,0.63
2023-03-26T17:17:37.432Z,0.73
2023-03-26T17:20:25.254Z,1.15
2023-03-26T17:23:09.240Z,0.70
2023-03-26T17:25:40.472Z,1.73
2023-03-26T17:28:28.274Z,0.68
2023-03-26T17:31:16.400Z,0.43
2023-03-26T17:33:43.280Z,0.95
2023-03-26T17:36:12.743Z,1.30
2023-03-26T17:38:39.219Z,1.77
2023-03-26T17:41:07.009Z,1.13
2023-03-26T17:43:50.756Z,1.88
2023-03-26T17:46:25.679Z,1.63
2023-03-26T17:49:00.964Z,1.13
2023-03-26T17:51:38.774Z,2.67
2023-03-26T17:58:07.673Z,1.85
2023-03-26T18:00:47.088Z,2.15
2023-03-26T18:03:34.149Z,2.67
2023-03-26T18:06:07.949Z,2.63
2023-03-26T18:08:50.677Z,2.40
2023-03-26T18:11:29.263Z,2.90
2023-03-26T18:14:01.938Z,2.42
2023-03-26T18:16:39.503Z,3.88
2023-03-26T18:19:22.619Z,3.92
2023-03-26T18:21:54.322Z,2.10
2023-03-26T18:24:32.789Z,1.92
2023-03-26T18:27:10.746Z,2.33
2023-03-26T18:29:44.694Z,2.55
2023-03-26T18:32:11.683Z,2.38
2023-03-26T18:34:45.956Z,2.53
2023-03-26T18:37:21.049Z,2.30
2023-03-26T18:39:58.979Z,3.05
2023-03-26T18:42:27.193Z,2.70
2023-03-26T18:44:54.699Z,2.47
2023-03-26T18:47:29.174Z,3.13
2023-03-26T18:49:57.525Z,3.92
2023-03-26T18:52:27.179Z,2.53
2023-03-26T18:54:54.660Z,2.20
2023-03-26T18:57:25.122Z,1.80
2023-03-26T18:59:54.329Z,1.90
2023-03-26T19:02:22.093Z,2.50
2023-03-26T19:04:50.817Z,2.90
2023-03-26T19:07:24.903Z,2.00
2023-03-26T19:09:56.285Z,2.50
2023-03-26T19:12:24.100Z,1.83
2023-03-26T19:15:02.654Z,2.85
2023-03-26T19:17:34.715Z,1.88
2023-03-26T19:20:01.610Z,2.22
2023-03-26T19:22:30.315Z,25.98
2023-03-26T19:25:02.163Z,22.70
2023-03-26T19:27:28.915Z,16.92
2023-03-26T19:29:55.438Z,30.65
2023-03-26T19:32:34.578Z,34.55
2023-03-26T19:35:03.996Z,13.68
2023-03-26T19:37:31.440Z,5.45
2023-03-26T19:40:30.133Z,3.10
2023-03-26T19:42:59.897Z,3.35
2023-03-26T19:45:26.995Z,3.47
2023-03-26T19:48:07.374Z,3.50
2023-03-26T19:50:52.608Z,3.10
2023-03-26T19:53:19.090Z,2.65
2023-03-26T19:56:11.405Z,3.63
2023-03-26T19:58:38.078Z,3.40
2023-03-26T20:01:04.751Z,4.30
2023-03-26T20:03:42.947Z,4.18
2023-03-26T20:06:14.972Z,3.88
2023-03-26T20:08:41.545Z,3.08
2023-03-26T20:11:16.594Z,2.80
2023-03-26T20:13:43.099Z,3.20
2023-03-26T20:16:25.751Z,4.05
2023-03-26T20:18:52.787Z,6.90
2023-03-26T20:21:19.513Z,3.70
2023-03-26T20:23:45.948Z,4.85
2023-03-26T20:26:16.576Z,3.40
2023-03-26T20:28:48.075Z,4.43
2023-03-26T20:31:22.016Z,2.63
2023-03-26T20:33:52.990Z,1.90
2023-03-26T20:36:34.287Z,2.33
2023-03-26T20:39:07.835Z,3.13
2023-03-26T20:41:35.643Z,3.70
2023-03-26T20:44:04.859Z,2.45
2023-03-26T20:46:31.953Z,5.57
2023-03-26T20:48:59.753Z,8.40
2023-03-26T20:51:28.188Z,3.65
2023-03-26T20:53:55.915Z,4.18
2023-03-26T20:56:22.691Z,4.05
2023-03-26T20:58:54.747Z,6.10
2023-03-26T21:01:27.757Z,4.00
2023-03-26T21:03:54.799Z,4.35
2023-03-26T21:06:21.302Z,4.97
2023-03-26T21:08:47.957Z,4.57
2023-03-26T21:11:26.506Z,4.97
2023-03-26T21:14:06.725Z,3.95
2023-03-26T21:16:33.669Z,5.32
2023-03-26T21:19:00.893Z,3.53
2023-03-26T21:21:39.799Z,4.28
2023-03-26T21:24:12.708Z,5.20
2023-03-26T21:26:56.243Z,8.23
2023-03-26T21:29:22.933Z,7.75
2023-03-26T21:31:51.091Z,6.28
2023-03-26T21:34:19.916Z,5.45
2023-03-26T21:36:47.039Z,6.10
2023-03-26T21:39:15.315Z,4.70
2023-03-26T21:41:46.966Z,6.72
2023-03-26T21:44:14.424Z,4.53
2023-03-26T21:46:45.476Z,5.15
2023-03-26T21:49:13.326Z,4.43
2023-03-26T21:51:40.854Z,3.25
2023-03-26T21:54:25.921Z,6.30
2023-03-26T21:57:29.058Z,3.58
2023-03-26T22:00:08.456Z,7.43
2023-03-26T22:02:47.064Z,6.80
2023-03-26T22:05:25.880Z,4.90
2023-03-26T22:08:02.863Z,7.40
2023-03-26T22:10:30.971Z,3.58
2023-03-26T22:12:58.445Z,6.60
2023-03-26T22:15:26.734Z,5.22
2023-03-26T22:17:56.000Z,3.05
2023-03-26T22:20:24.949Z,6.53
2023-03-26T22:22:53.310Z,3.25
2023-03-26T22:25:20.911Z,6.25
2023-03-26T22:27:49.860Z,6.97
2023-03-26T22:30:17.587Z,8.35
2023-03-26T22:32:44.909Z,6.25
2023-03-26T22:35:12.977Z,4.10
2023-03-26T22:37:40.534Z,6.85
2023-03-26T22:40:10.424Z,5.07
2023-03-26T22:42:37.202Z,4.68
2023-03-26T22:45:04.655Z,4.82
2023-03-26T22:47:33.660Z,3.25
2023-03-26T22:50:01.059Z,5.45
2023-03-26T22:52:28.318Z,6.80
2023-03-26T22:54:55.118Z,7.20
2023-03-26T22:57:22.849Z,10.05
2023-03-26T22:59:49.750Z,7.25
2023-03-26T23:02:17.990Z,6.43
2023-03-26T23:04:44.835Z,5.63
2023-03-26T23:07:11.823Z,4.32
2023-03-26T23:09:38.523Z,4.45
2023-03-26T23:12:05.485Z,6.60
2023-03-26T23:14:36.284Z,6.30
2023-03-26T23:17:02.981Z,5.10
2023-03-26T23:19:30.175Z,5.70
2023-03-26T23:21:57.592Z,5.47
2023-03-26T23:24:26.486Z,4.93
2023-03-26T23:26:53.403Z,5.20
2023-03-26T23:29:20.106Z,6.45
2023-03-26T23:31:46.975Z,6.18
2023-03-26T23:34:14.269Z,8.93
2023-03-26T23:36:41.934Z,6.88
2023-03-26T23:39:09.294Z,6.55
2023-03-26T23:41:36.892Z,8.20
2023-03-26T23:44:04.115Z,4.85
2023-03-26T23:46:33.121Z,7.60
2023-03-26T23:51:32.744Z,3.83
2023-03-26T23:54:00.287Z,9.07
2023-03-26T23:56:30.376Z,7.32
2023-03-26T23:58:58.220Z,3.47
